createdAt,value
2023-06-12T00:02:27.118Z,53.80
2023-06-12T00:04:55.738Z,54.60
2023-06-12T00:07:22.964Z,54.90
2023-06-12T00:09:50.079Z,55.00
2023-06-12T00:12:17.066Z,54.70
2023-06-12T00:14:44.001Z,54.70
2023-06-12T00:17:10.841Z,54.60
2023-06-12T00:19:38.642Z,55.00
2023-06-12T00:22:05.650Z,54.80
2023-06-12T00:24:32.495Z,54.90
2023-06-12T00:26:59.291Z,55.20
2023-06-12T00:29:26.080Z,55.60
2023-06-12T00:31:52.958Z,55.30
2023-06-12T00:34:19.786Z,55.90
2023-06-12T00:36:48.631Z,55.60
2023-06-12T00:39:15.659Z,56.40
2023-06-12T00:41:42.517Z,56.30
2023-06-12T00:44:09.309Z,56.30
2023-06-12T00:46:36.242Z,56.30
2023-06-12T00:49:03.831Z,57.00
2023-06-12T00:51:34.291Z,57.00
2023-06-12T00:54:01.560Z,57.10
2023-06-12T00:56:29.174Z,57.50
2023-06-12T00:58:56.590Z,57.50
2023-06-12T01:01:26.510Z,57.60
2023-06-12T01:03:57.586Z,58.00
2023-06-12T01:06:34.469Z,58.60
2023-06-12T01:09:26.814Z,58.10
2023-06-12T01:11:55.048Z,57.90
2023-06-12T01:14:22.437Z,58.10
2023-06-12T01:16:49.481Z,58.30
2023-06-12T01:19:21.198Z,58.80
2023-06-12T01:21:58.921Z,59.20
2023-06-12T01:24:35.022Z,58.90
2023-06-12T01:27:37.051Z,58.60
2023-06-12T01:30:09.881Z,58.80
2023-06-12T01:32:39.380Z,59.50
2023-06-12T01:35:10.662Z,59.10
2023-06-12T01:37:45.056Z,59.80
2023-06-12T01:40:13.847Z,59.50
2023-06-12T01:42:41.714Z,59.10
2023-06-12T01:45:09.344Z,59.00
2023-06-12T01:47:36.596Z,59.20
2023-06-12T01:50:05.175Z,59.70
2023-06-12T01:52:34.117Z,59.50
2023-06-12T01:55:02.035Z,59.90
2023-06-12T01:57:29.136Z,59.80
2023-06-12T01:59:56.199Z,59.40
2023-06-12T02:02:23.457Z,60.70
2023-06-12T02:04:50.505Z,60.10
2023-06-12T02:07:17.935Z,59.80
2023-06-12T02:09:44.985Z,60.20
2023-06-12T02:12:12.459Z,61.00
2023-06-12T02:14:39.332Z,60.60
2023-06-12T02:17:06.861Z,61.70
2023-06-12T02:19:34.048Z,61.50
2023-06-12T02:22:01.501Z,61.10
2023-06-12T02:24:33.311Z,61.60
2023-06-12T02:27:00.565Z,62.20
2023-06-12T02:29:27.542Z,62.00
2023-06-12T02:31:54.509Z,63.00
2023-06-12T02:34:21.465Z,62.30
2023-06-12T02:36:48.948Z,63.10
2023-06-12T02:39:16.363Z,63.30
2023-06-12T02:49:20.348Z,63.60
2023-06-12T02:51:47.776Z,64.60
2023-06-12T02:54:16.335Z,64.30
2023-06-12T02:56:46.041Z,64.40
2023-06-12T02:59:18.805Z,64.70
2023-06-12T03:01:46.117Z,64.40
2023-06-12T03:04:18.076Z,65.60
2023-06-12T03:06:46.148Z,66.00
2023-06-12T03:09:17.208Z,66.40
2023-06-12T03:11:44.677Z,66.40
2023-06-12T03:14:15.799Z,66.40
2023-06-12T03:16:43.047Z,67.30
2023-06-12T03:19:09.899Z,66.80
2023-06-12T03:21:38.072Z,67.40
2023-06-12T03:24:05.607Z,67.90
2023-06-12T03:26:35.132Z,68.30
2023-06-12T03:29:02.524Z,68.60
2023-06-12T03:31:30.162Z,69.10
2023-06-12T03:33:57.634Z,69.30
2023-06-12T03:36:26.282Z,69.10
2023-06-12T03:38:53.529Z,68.70
2023-06-12T03:41:23.912Z,69.80
2023-06-12T03:43:51.196Z,69.80
2023-06-12T03:46:18.551Z,69.70
2023-06-12T03:48:45.524Z,70.00
2023-06-12T03:51:12.487Z,70.00
2023-06-12T03:53:40.281Z,70.10
2023-06-12T03:56:07.931Z,70.20
2023-06-12T03:58:35.110Z,70.60
2023-06-12T04:01:02.187Z,70.60
2023-06-12T04:03:29.496Z,70.90
2023-06-12T04:05:56.557Z,70.70
2023-06-12T04:08:23.560Z,72.00
2023-06-12T04:10:51.451Z,71.30
2023-06-12T04:13:18.739Z,71.80
2023-06-12T04:18:15.696Z,71.50
2023-06-12T04:20:42.630Z,71.00
2023-06-12T04:23:12.459Z,71.80
2023-06-12T04:25:44.468Z,72.10
2023-06-12T04:28:14.711Z,72.50
2023-06-12T04:30:42.923Z,72.60
2023-06-12T04:33:11.063Z,73.70
2023-06-12T04:35:38.382Z,73.80
2023-06-12T04:38:06.423Z,73.70
2023-06-12T07:52:54.092Z,73.70
2023-06-12T07:55:21.678Z,60.40
2023-06-12T07:57:48.941Z,60.10
2023-06-12T08:00:16.404Z,59.60
2023-06-12T08:02:43.525Z,59.80
2023-06-12T08:05:11.743Z,60.70
2023-06-12T08:07:38.830Z,60.80
2023-06-12T08:10:08.614Z,60.90
2023-06-12T08:12:35.871Z,61.20
2023-06-12T08:15:03.887Z,60.70
2023-06-12T08:17:31.159Z,61.40
2023-06-12T08:19:58.726Z,61.70
2023-06-12T08:22:25.755Z,61.20
2023-06-12T08:24:52.830Z,60.90
2023-06-12T08:27:19.770Z,60.70
2023-06-12T08:29:46.580Z,62.10
2023-06-12T08:32:15.507Z,60.60
2023-06-12T08:34:42.388Z,60.20
2023-06-12T08:37:09.244Z,60.40
2023-06-12T08:39:36.232Z,60.90
2023-06-12T08:42:32.072Z,60.40
2023-06-12T08:45:21.001Z,58.60
2023-06-12T08:47:50.436Z,59.90
2023-06-12T08:50:20.810Z,59.60
2023-06-12T08:52:52.783Z,59.70
2023-06-12T08:55:21.272Z,59.50
2023-06-12T08:57:48.865Z,59.30
2023-06-12T09:00:16.630Z,57.40
2023-06-12T09:02:54.448Z,58.40
2023-06-12T09:05:27.493Z,57.70
2023-06-12T09:07:54.929Z,58.60
2023-06-12T09:10:22.470Z,56.90
2023-06-12T09:12:53.898Z,57.50
2023-06-12T09:15:22.016Z,57.50
2023-06-12T09:17:53.897Z,58.20
2023-06-12T09:20:40.636Z,58.30
2023-06-12T09:23:08.862Z,58.00
2023-06-12T09:25:37.406Z,57.80
2023-06-12T09:28:05.220Z,56.70
2023-06-12T09:30:32.576Z,57.50
2023-06-12T09:33:04.409Z,57.60
2023-06-12T09:35:31.338Z,56.90
2023-06-12T09:37:59.763Z,55.60
2023-06-12T09:40:26.601Z,56.10
2023-06-12T09:42:53.494Z,54.60
2023-06-12T09:45:24.640Z,55.50
2023-06-12T09:47:53.152Z,54.50
2023-06-12T09:50:22.776Z,55.70
2023-06-12T09:52:50.420Z,56.10
2023-06-12T09:55:19.077Z,56.70
2023-06-12T09:57:53.590Z,56.30
2023-06-12T10:00:22.443Z,55.00
2023-06-12T10:02:57.445Z,53.90
2023-06-12T10:05:29.943Z,53.90
2023-06-12T10:08:01.037Z,55.10
2023-06-12T10:10:28.531Z,56.10
2023-06-12T10:12:56.738Z,55.70
2023-06-12T10:15:24.164Z,54.70
2023-06-12T10:17:55.279Z,53.10
2023-06-12T10:20:22.759Z,54.70
2023-06-12T10:22:50.883Z,54.30
2023-06-12T10:25:18.688Z,54.20
2023-06-12T10:27:46.599Z,51.90
2023-06-12T10:30:16.727Z,52.90
2023-06-12T10:32:45.957Z,51.50
2023-06-12T10:35:13.543Z,52.00
2023-06-12T10:37:47.777Z,52.50
2023-06-12T10:40:26.521Z,52.70
2023-06-12T10:43:04.188Z,50.90
2023-06-12T10:45:32.902Z,49.60
2023-06-12T10:48:11.099Z,51.30
2023-06-12T10:50:43.496Z,48.90
2023-06-12T10:53:13.877Z,48.00
2023-06-12T10:55:42.473Z,47.60
2023-06-12T10:58:13.995Z,49.70
2023-06-12T11:00:49.681Z,46.50
2023-06-12T11:03:25.559Z,44.80
2023-06-12T11:05:57.288Z,44.60
2023-06-12T11:08:27.891Z,44.20
2023-06-12T11:10:57.824Z,45.50
2023-06-12T11:13:26.061Z,45.20
2023-06-12T11:15:53.998Z,45.30
2023-06-12T11:18:21.292Z,45.60
2023-06-12T11:20:56.071Z,43.90
2023-06-12T11:23:27.926Z,44.00
2023-06-12T11:25:56.944Z,45.90
2023-06-12T11:28:25.037Z,43.60
2023-06-12T11:31:08.715Z,45.00
2023-06-12T11:33:36.996Z,45.50
2023-06-12T11:36:04.271Z,48.10
2023-06-12T11:41:01.053Z,43.60
2023-06-12T11:46:03.777Z,41.50
2023-06-12T11:51:03.350Z,40.10
2023-06-12T11:53:33.875Z,41.70
2023-06-12T11:58:37.707Z,41.80
2023-06-12T12:01:16.274Z,41.70
2023-06-12T12:03:48.036Z,41.80
2023-06-12T12:06:18.971Z,40.10
2023-06-12T12:08:46.054Z,41.70
2023-06-12T12:11:20.543Z,41.20
2023-06-12T12:13:59.914Z,41.60
2023-06-12T12:16:28.490Z,40.00
2023-06-12T12:18:56.230Z,40.20
2023-06-12T12:21:24.743Z,42.70
2023-06-12T12:23:53.805Z,43.30
2023-06-12T12:26:21.543Z,43.90
2023-06-12T12:28:48.871Z,44.50
2023-06-12T12:31:15.864Z,44.30
2023-06-12T12:33:42.774Z,44.90
2023-06-12T12:36:10.143Z,45.90
2023-06-12T12:38:36.968Z,43.60
2023-06-12T12:41:04.026Z,43.80
2023-06-12T12:43:30.919Z,40.10
2023-06-12T12:45:57.983Z,41.40
2023-06-12T12:48:25.263Z,38.90
2023-06-12T12:51:07.003Z,39.70
2023-06-12T12:53:36.860Z,41.00
2023-06-12T12:56:04.133Z,40.10
2023-06-12T12:58:31.157Z,38.60
2023-06-12T13:00:58.335Z,38.50
2023-06-12T13:03:25.299Z,40.00
2023-06-12T13:05:52.557Z,39.90
2023-06-12T13:08:19.445Z,38.70
2023-06-12T13:10:46.405Z,39.60
2023-06-12T13:13:15.293Z,38.90
2023-06-12T13:15:43.988Z,38.00
2023-06-12T13:18:10.966Z,38.10
2023-06-12T13:20:37.846Z,40.90
2023-06-12T13:23:04.614Z,41.50
2023-06-12T13:25:31.579Z,38.70
2023-06-12T13:27:58.655Z,41.20
2023-06-12T13:30:29.083Z,42.20
2023-06-12T13:32:56.741Z,38.20
2023-06-12T13:35:23.789Z,39.10
2023-06-12T13:37:51.286Z,42.00
2023-06-12T13:40:18.758Z,42.60
2023-06-12T13:42:47.592Z,42.90
2023-06-12T13:45:14.576Z,42.80
2023-06-12T13:47:41.589Z,42.50
2023-06-12T13:50:12.426Z,43.90
2023-06-12T13:52:41.399Z,43.80
2023-06-12T13:55:08.553Z,44.50
2023-06-12T13:57:38.633Z,44.90
2023-06-12T14:00:07.100Z,44.70
2023-06-12T14:02:33.916Z,43.90
2023-06-12T14:05:01.106Z,44.10
2023-06-12T14:07:28.661Z,45.20
2023-06-12T14:09:55.597Z,44.70
2023-06-12T14:12:23.903Z,45.60
2023-06-12T14:14:50.812Z,44.80
2023-06-12T14:17:18.508Z,45.20
2023-06-12T14:19:45.414Z,44.80
2023-06-12T14:22:14.048Z,44.50
2023-06-12T14:24:43.082Z,45.60
2023-06-12T14:27:09.974Z,46.30
2023-06-12T14:29:36.775Z,45.50
2023-06-12T14:32:04.083Z,45.20
2023-06-12T14:34:31.054Z,46.30
2023-06-12T14:36:58.068Z,45.60
2023-06-12T14:39:24.856Z,45.30
2023-06-12T14:41:51.697Z,45.70
2023-06-12T14:44:18.784Z,44.70
2023-06-12T14:46:45.686Z,46.00
2023-06-12T14:49:12.509Z,45.20
2023-06-12T14:51:39.389Z,45.50
2023-06-12T14:54:06.362Z,45.50
2023-06-12T14:56:33.295Z,45.50
2023-06-12T14:59:00.064Z,47.10
2023-06-12T15:01:26.956Z,45.70
2023-06-12T15:03:54.039Z,46.10
2023-06-12T15:06:20.926Z,45.40
2023-06-12T15:08:48.888Z,45.10
2023-06-12T15:11:15.778Z,46.70
2023-06-12T15:13:42.652Z,45.80
2023-06-12T15:16:09.615Z,48.50
2023-06-12T15:21:06.464Z,43.40
2023-06-12T15:23:33.339Z,45.30
2023-06-12T15:26:00.319Z,45.20
2023-06-12T15:28:27.118Z,43.30
2023-06-12T15:30:53.978Z,42.10
2023-06-12T15:33:21.097Z,42.50
2023-06-12T15:35:48.074Z,44.50
2023-06-12T15:38:39.284Z,47.00
2023-06-12T15:41:08.611Z,42.10
2023-06-12T15:43:36.952Z,43.60
2023-06-12T15:46:05.920Z,42.70
2023-06-12T15:48:32.961Z,42.20
2023-06-12T15:51:01.332Z,41.10
2023-06-12T15:53:28.387Z,43.40
2023-06-12T15:55:55.412Z,42.70
2023-06-12T15:58:22.687Z,41.70
2023-06-12T16:00:49.575Z,41.10
2023-06-12T16:03:16.753Z,42.00
2023-06-12T16:05:43.764Z,40.40
2023-06-12T16:08:10.585Z,43.50
2023-06-12T16:10:37.512Z,41.70
2023-06-12T16:13:04.319Z,41.10
2023-06-12T16:15:31.308Z,41.00
2023-06-12T16:17:58.351Z,42.80
2023-06-12T16:20:25.312Z,44.50
2023-06-12T16:22:52.326Z,41.10
2023-06-12T16:25:19.637Z,41.10
2023-06-12T16:27:48.483Z,41.60
2023-06-12T16:30:15.882Z,39.70
2023-06-12T16:32:43.021Z,39.80
2023-06-12T16:35:10.899Z,40.80
2023-06-12T16:37:38.088Z,40.20
2023-06-12T16:40:10.551Z,39.90
2023-06-12T16:42:38.101Z,39.70
2023-06-12T16:45:06.891Z,40.00
2023-06-12T16:47:33.965Z,40.20
2023-06-12T16:50:00.989Z,39.40
2023-06-12T16:52:28.263Z,39.20
2023-06-12T16:54:55.722Z,40.00
2023-06-12T16:57:23.112Z,39.10
2023-06-12T16:59:50.256Z,38.70
2023-06-12T17:02:20.279Z,39.20
2023-06-12T17:04:47.545Z,41.10
2023-06-12T17:07:17.001Z,39.70
2023-06-12T17:09:44.463Z,40.80
2023-06-12T17:12:12.453Z,39.90
2023-06-12T17:14:43.325Z,39.80
2023-06-12T17:17:11.162Z,40.20
2023-06-12T17:19:38.456Z,39.20
2023-06-12T17:22:06.739Z,39.70
2023-06-12T17:24:34.113Z,39.70
2023-06-12T17:27:02.243Z,39.10
2023-06-12T17:29:29.030Z,39.20
2023-06-12T17:31:59.132Z,39.40
2023-06-12T17:34:26.535Z,39.20
2023-06-12T17:36:53.834Z,39.40
2023-06-12T17:39:20.881Z,40.30
2023-06-12T17:41:47.768Z,38.70
2023-06-12T17:44:14.944Z,39.50
2023-06-12T17:46:41.762Z,39.90
2023-06-12T17:49:08.726Z,39.90
2023-06-12T17:51:35.784Z,40.40
2023-06-12T17:54:02.847Z,40.40
2023-06-12T17:56:29.740Z,39.70
2023-06-12T17:58:56.627Z,40.30
2023-06-12T18:01:23.542Z,40.00
2023-06-12T18:03:50.402Z,40.60
2023-06-12T18:06:17.638Z,40.40
2023-06-12T18:08:44.490Z,41.90
2023-06-12T18:11:11.281Z,41.50
2023-06-12T18:13:38.869Z,40.20
2023-06-12T18:16:06.326Z,40.60
2023-06-12T18:18:33.323Z,40.10
2023-06-12T18:21:00.348Z,41.10
2023-06-12T18:23:27.192Z,40.50
2023-06-12T18:25:54.134Z,40.80
2023-06-12T18:28:22.045Z,41.10
2023-06-12T18:30:49.127Z,41.50
2023-06-12T18:33:18.947Z,41.90
2023-06-12T18:35:45.830Z,41.70
2023-06-12T18:38:12.823Z,41.30
2023-06-12T18:40:39.960Z,41.60
2023-06-12T18:43:08.073Z,42.30
2023-06-12T18:45:34.897Z,42.70
2023-06-12T18:48:01.844Z,43.00
2023-06-12T18:50:28.693Z,42.20
2023-06-12T18:52:55.678Z,42.10
2023-06-12T18:55:22.585Z,42.10
2023-06-12T18:57:49.450Z,42.30
2023-06-12T19:00:16.726Z,42.40
2023-06-12T19:02:43.701Z,42.70
2023-06-12T19:05:13.360Z,42.80
2023-06-12T19:07:40.924Z,42.80
2023-06-12T19:10:08.455Z,43.30
2023-06-12T19:12:35.348Z,43.30
2023-06-12T19:15:02.315Z,42.90
2023-06-12T19:17:29.171Z,43.50
2023-06-12T19:19:56.176Z,44.10
2023-06-12T19:22:23.016Z,44.40
2023-06-12T19:24:52.013Z,44.20
2023-06-12T19:27:19.034Z,44.70
2023-06-12T19:29:45.941Z,44.40
2023-06-12T19:32:19.499Z,44.50
2023-06-12T19:34:46.700Z,44.70
2023-06-12T19:37:13.576Z,44.60
2023-06-12T19:39:44.101Z,44.60
2023-06-12T19:42:12.147Z,44.80
2023-06-12T19:44:39.616Z,44.70
2023-06-12T19:47:07.298Z,44.80
2023-06-12T19:49:35.454Z,44.90
2023-06-12T19:52:02.426Z,45.10
2023-06-12T19:54:29.241Z,44.70
2023-06-12T19:56:56.035Z,44.60
2023-06-12T19:59:22.930Z,44.80
2023-06-12T20:01:49.849Z,44.80
2023-06-12T20:04:16.834Z,45.20
2023-06-12T20:06:43.671Z,45.80
2023-06-12T20:09:11.580Z,46.30
2023-06-12T20:11:38.552Z,46.10
2023-06-12T20:14:06.673Z,45.80
2023-06-12T20:16:36.244Z,45.80
2023-06-12T20:19:05.062Z,45.70
2023-06-12T20:21:32.015Z,45.80
2023-06-12T20:23:59.655Z,45.50
2023-06-12T20:26:28.387Z,45.30
2023-06-12T20:28:55.543Z,45.60
2023-06-12T20:31:22.453Z,45.90
2023-06-12T20:33:49.558Z,46.00
2023-06-12T20:36:16.469Z,46.70
2023-06-12T20:38:43.695Z,46.70
2023-06-12T20:41:10.737Z,46.30
2023-06-12T20:43:38.076Z,46.30
2023-06-12T20:46:05.766Z,46.30
2023-06-12T20:48:35.919Z,45.90
2023-06-12T20:51:06.075Z,46.30
2023-06-12T20:53:33.641Z,46.50
2023-06-12T20:56:01.046Z,46.10
2023-06-12T20:58:28.232Z,46.40
2023-06-12T21:00:56.322Z,46.30
2023-06-12T21:03:23.332Z,46.80
2023-06-12T21:05:50.462Z,46.90
2023-06-12T21:08:17.671Z,47.10
2023-06-12T21:10:44.579Z,47.00
2023-06-12T21:13:12.563Z,47.50
2023-06-12T21:15:41.857Z,47.70
2023-06-12T21:18:08.937Z,47.80
2023-06-12T21:20:36.049Z,48.00
2023-06-12T21:23:04.058Z,48.20
2023-06-12T21:25:30.941Z,48.70
2023-06-12T21:27:58.128Z,48.70
2023-06-12T21:30:25.092Z,48.90
2023-06-12T21:32:53.421Z,49.00
2023-06-12T21:35:20.446Z,49.20
2023-06-12T21:37:47.423Z,49.30
2023-06-12T21:40:15.275Z,49.50
2023-06-12T21:42:42.200Z,49.70
2023-06-12T21:45:09.376Z,50.00
2023-06-12T21:47:36.227Z,50.20
2023-06-12T21:50:03.177Z,50.50
2023-06-12T21:52:29.975Z,50.20
2023-06-12T21:54:56.820Z,50.30
2023-06-12T21:57:23.837Z,50.40
2023-06-12T21:59:50.848Z,50.30
2023-06-12T22:02:17.755Z,50.50
2023-06-12T22:04:44.713Z,50.90
2023-06-12T22:07:11.641Z,50.70
2023-06-12T22:09:38.488Z,51.10
2023-06-12T22:12:06.317Z,50.90
2023-06-12T22:14:33.675Z,51.30
2023-06-12T22:17:00.684Z,51.40
2023-06-12T22:19:27.847Z,51.60
2023-06-12T22:21:54.743Z,51.40
2023-06-12T22:24:22.613Z,52.00
2023-06-12T22:26:50.865Z,51.50
2023-06-12T22:29:18.925Z,52.10
2023-06-12T22:31:45.985Z,52.20
2023-06-12T22:34:13.042Z,52.10
2023-06-12T22:36:40.472Z,52.30
2023-06-12T22:39:08.553Z,51.90
2023-06-12T22:41:35.512Z,51.90
2023-06-12T22:44:03.382Z,52.30
2023-06-12T22:46:32.637Z,52.40
2023-06-12T22:49:01.397Z,52.50
2023-06-12T22:51:28.346Z,52.40
2023-06-12T22:53:55.538Z,52.50
2023-06-12T22:56:22.440Z,53.00
2023-06-12T22:58:50.266Z,52.70
2023-06-12T23:01:17.076Z,53.00
2023-06-12T23:03:43.923Z,53.10
2023-06-12T23:06:12.762Z,53.40
2023-06-12T23:08:39.813Z,53.40
2023-06-12T23:11:09.371Z,53.50
2023-06-12T23:13:36.478Z,53.30
2023-06-12T23:16:03.410Z,53.50
2023-06-12T23:18:34.634Z,53.60
2023-06-12T23:21:02.845Z,54.10
2023-06-12T23:23:34.451Z,53.70
2023-06-12T23:26:02.666Z,53.90
2023-06-12T23:28:34.289Z,53.80
2023-06-12T23:31:04.457Z,53.90
2023-06-12T23:33:31.573Z,54.00
2023-06-12T23:35:58.851Z,54.30
2023-06-12T23:38:25.711Z,54.80
2023-06-12T23:40:52.586Z,54.40
2023-06-12T23:43:19.421Z,54.10
2023-06-12T23:45:46.248Z,54.50
2023-06-12T23:48:13.122Z,54.60
2023-06-12T23:50:42.391Z,54.80
2023-06-12T23:53:09.202Z,54.30
2023-06-12T23:55:36.027Z,54.70
2023-06-12T23:58:02.845Z,54.90
